FJL734 OPIS-OPLA
Flight info
| Callsign | FJL734 |
|---|---|
| Flight time | 0h 31m |
| Altitude | 25000 |
| Route | INDEK2C INDEK J121 AKBER AKBER1C |
| Aircraft | A320/M-SDE3FGHIRWY/LB1 |
Departure
| Time | 2026-05-06 11:18 |
|---|---|
| Airport | Islamabad International Airport (OPIS) |
Arrival
| Time | 2026-05-06 11:49 |
|---|---|
| Airport | Allama Iqbal International Airport (OPLA) |
| Time | Latitude | Longitude | Altitude | Speed | Heading |
|---|---|---|---|---|---|
| 2026-05-06 11:02 | 33.55666 | 72.83181 | 1771 ft | 0 kts | 100° |
| 2026-05-06 11:08 | 33.55667 | 72.83172 | 1772 ft | 4 kts | 102° |
| 2026-05-06 11:08 | 33.55675 | 72.83141 | 1772 ft | 4 kts | 114° |
| 2026-05-06 11:08 | 33.55688 | 72.83114 | 1771 ft | 4 kts | 131° |
| 2026-05-06 11:08 | 33.55708 | 72.83093 | 1770 ft | 4 kts | 156° |
| 2026-05-06 11:09 | 33.55730 | 72.83088 | 1772 ft | 1 kts | 190° |
| 2026-05-06 11:10 | 33.55685 | 72.83078 | 1772 ft | 16 kts | 190° |
| 2026-05-06 11:11 | 33.55620 | 72.83002 | 1771 ft | 15 kts | 235° |
| 2026-05-06 11:11 | 33.55547 | 72.82885 | 1770 ft | 18 kts | 236° |
| 2026-05-06 11:11 | 33.55472 | 72.82755 | 1770 ft | 19 kts | 236° |
| 2026-05-06 11:11 | 33.55467 | 72.82603 | 1770 ft | 19 kts | 269° |
| 2026-05-06 11:12 | 33.55383 | 72.82522 | 1771 ft | 17 kts | 197° |
| 2026-05-06 11:12 | 33.55264 | 72.82493 | 1769 ft | 18 kts | 191° |
| 2026-05-06 11:12 | 33.55226 | 72.82375 | 1772 ft | 17 kts | 283° |
| 2026-05-06 11:12 | 33.55250 | 72.82227 | 1769 ft | 19 kts | 280° |
| 2026-05-06 11:13 | 33.55273 | 72.82069 | 1769 ft | 20 kts | 280° |
| 2026-05-06 11:13 | 33.55299 | 72.81902 | 1769 ft | 21 kts | 280° |
| 2026-05-06 11:13 | 33.55324 | 72.81728 | 1767 ft | 22 kts | 279° |
| 2026-05-06 11:13 | 33.55355 | 72.81550 | 1771 ft | 22 kts | 279° |
| 2026-05-06 11:14 | 33.55380 | 72.81367 | 1769 ft | 23 kts | 280° |
| 2026-05-06 11:14 | 33.55410 | 72.81178 | 1767 ft | 23 kts | 281° |
| 2026-05-06 11:14 | 33.55439 | 72.80988 | 1768 ft | 23 kts | 281° |
| 2026-05-06 11:14 | 33.55468 | 72.80809 | 1768 ft | 19 kts | 280° |
| 2026-05-06 11:15 | 33.55438 | 72.80699 | 1772 ft | 14 kts | 211° |
| 2026-05-06 11:15 | 33.55326 | 72.80669 | 1760 ft | 20 kts | 191° |
| 2026-05-06 11:15 | 33.55183 | 72.80638 | 1755 ft | 22 kts | 190° |
| 2026-05-06 11:15 | 33.55092 | 72.80683 | 1752 ft | 15 kts | 94° |
| 2026-05-06 11:16 | 33.55090 | 72.80749 | 1749 ft | 0 kts | 98° |
| 2026-05-06 11:17 | 33.55088 | 72.80770 | 1755 ft | 21 kts | 98° |
| 2026-05-06 11:17 | 33.55013 | 72.81247 | 1757 ft | 93 kts | 101° |
| 2026-05-06 11:17 | 33.54856 | 72.82247 | 1754 ft | 149 kts | 101° |
| 2026-05-06 11:17 | 33.54635 | 72.83658 | 1791 ft | 190 kts | 100° |
| 2026-05-06 11:18 | 33.54412 | 72.85215 | 2489 ft | 189 kts | 98° |
| 2026-05-06 11:18 | 33.54236 | 72.86816 | 2980 ft | 202 kts | 94° |
| 2026-05-06 11:18 | 33.54184 | 72.88577 | 3428 ft | 215 kts | 94° |
| 2026-05-06 11:18 | 33.53934 | 72.90432 | 3913 ft | 232 kts | 107° |
| 2026-05-06 11:19 | 33.53099 | 72.92169 | 4332 ft | 254 kts | 135° |
| 2026-05-06 11:19 | 33.51583 | 72.93403 | 4676 ft | 273 kts | 159° |
| 2026-05-06 11:19 | 33.49785 | 72.94241 | 5321 ft | 281 kts | 161° |
| 2026-05-06 11:19 | 33.47944 | 72.95070 | 6106 ft | 284 kts | 161° |
| 2026-05-06 11:20 | 33.46108 | 72.95890 | 6880 ft | 287 kts | 160° |
| 2026-05-06 11:20 | 33.44219 | 72.96728 | 7652 ft | 290 kts | 160° |
| 2026-05-06 11:20 | 33.42304 | 72.97577 | 8362 ft | 296 kts | 160° |
| 2026-05-06 11:20 | 33.40357 | 72.98441 | 8852 ft | 300 kts | 159° |
| 2026-05-06 11:21 | 33.38390 | 72.99319 | 9487 ft | 302 kts | 159° |
| 2026-05-06 11:21 | 33.36409 | 73.00204 | 10188 ft | 308 kts | 159° |
| 2026-05-06 11:21 | 33.34322 | 73.01137 | 10419 ft | 331 kts | 159° |
| 2026-05-06 11:21 | 33.32092 | 73.02133 | 10571 ft | 354 kts | 159° |
| 2026-05-06 11:22 | 33.29738 | 73.03177 | 10854 ft | 371 kts | 159° |
| 2026-05-06 11:22 | 33.27291 | 73.04260 | 11415 ft | 377 kts | 159° |
| 2026-05-06 11:22 | 33.24819 | 73.05354 | 12036 ft | 382 kts | 159° |
| 2026-05-06 11:22 | 33.22302 | 73.06473 | 12674 ft | 386 kts | 159° |
| 2026-05-06 11:23 | 33.19769 | 73.07600 | 13313 ft | 391 kts | 159° |
| 2026-05-06 11:23 | 33.17199 | 73.08742 | 13891 ft | 396 kts | 159° |
| 2026-05-06 11:23 | 33.14599 | 73.09893 | 14447 ft | 400 kts | 159° |
| 2026-05-06 11:23 | 33.11979 | 73.11051 | 14999 ft | 404 kts | 159° |
| 2026-05-06 11:24 | 33.09353 | 73.12211 | 15543 ft | 408 kts | 159° |
| 2026-05-06 11:24 | 33.06680 | 73.13393 | 16089 ft | 412 kts | 159° |
| 2026-05-06 11:24 | 33.03984 | 73.14585 | 16598 ft | 417 kts | 159° |
| 2026-05-06 11:24 | 33.01243 | 73.15794 | 17090 ft | 422 kts | 159° |
| 2026-05-06 11:25 | 32.98468 | 73.17015 | 17621 ft | 426 kts | 159° |
| 2026-05-06 11:25 | 32.95677 | 73.18243 | 18135 ft | 429 kts | 159° |
| 2026-05-06 11:25 | 32.92860 | 73.19481 | 18608 ft | 433 kts | 159° |
| 2026-05-06 11:25 | 32.90025 | 73.20729 | 19103 ft | 435 kts | 159° |
| 2026-05-06 11:26 | 32.87168 | 73.21991 | 19597 ft | 437 kts | 159° |
| 2026-05-06 11:26 | 32.84350 | 73.23235 | 20075 ft | 439 kts | 159° |
| 2026-05-06 11:26 | 32.81477 | 73.24502 | 20554 ft | 442 kts | 159° |
| 2026-05-06 11:26 | 32.78600 | 73.25793 | 21022 ft | 444 kts | 156° |
| 2026-05-06 11:27 | 32.75853 | 73.27482 | 21480 ft | 445 kts | 146° |
| 2026-05-06 11:27 | 32.73349 | 73.29634 | 21930 ft | 446 kts | 141° |
| 2026-05-06 11:27 | 32.70881 | 73.31899 | 22447 ft | 447 kts | 141° |
| 2026-05-06 11:27 | 32.68416 | 73.34147 | 22896 ft | 448 kts | 141° |
| 2026-05-06 11:28 | 32.65926 | 73.36406 | 23353 ft | 450 kts | 141° |
| 2026-05-06 11:28 | 32.63420 | 73.38674 | 23715 ft | 452 kts | 141° |
| 2026-05-06 11:28 | 32.60918 | 73.40940 | 24047 ft | 455 kts | 141° |
| 2026-05-06 11:28 | 32.58427 | 73.43197 | 24373 ft | 458 kts | 141° |
| 2026-05-06 11:29 | 32.55879 | 73.45504 | 24652 ft | 462 kts | 141° |
| 2026-05-06 11:29 | 32.53316 | 73.47826 | 24779 ft | 464 kts | 141° |
| 2026-05-06 11:29 | 32.50760 | 73.50145 | 24803 ft | 464 kts | 141° |
| 2026-05-06 11:29 | 32.48195 | 73.52473 | 24802 ft | 464 kts | 141° |
| 2026-05-06 11:30 | 32.45630 | 73.54801 | 24802 ft | 464 kts | 141° |
| 2026-05-06 11:30 | 32.43059 | 73.57131 | 24804 ft | 464 kts | 141° |
| 2026-05-06 11:30 | 32.40486 | 73.59456 | 24599 ft | 464 kts | 141° |
| 2026-05-06 11:30 | 32.37931 | 73.61760 | 23452 ft | 473 kts | 141° |
| 2026-05-06 11:31 | 32.35296 | 73.64133 | 22186 ft | 480 kts | 141° |
| 2026-05-06 11:31 | 32.32651 | 73.66512 | 21675 ft | 470 kts | 141° |
| 2026-05-06 11:31 | 32.30072 | 73.68826 | 21405 ft | 460 kts | 141° |
| 2026-05-06 11:31 | 32.27530 | 73.71104 | 21160 ft | 458 kts | 141° |
| 2026-05-06 11:32 | 32.25001 | 73.73377 | 20913 ft | 456 kts | 141° |
| 2026-05-06 11:32 | 32.23328 | 73.74885 | 20776 ft | 455 kts | 141° |
| 2026-05-06 11:32 | 32.20812 | 73.77153 | 20808 ft | 455 kts | 141° |
| 2026-05-06 11:32 | 32.17469 | 73.80157 | 20805 ft | 455 kts | 141° |
| 2026-05-06 11:33 | 32.15754 | 73.81694 | 20801 ft | 455 kts | 141° |
| 2026-05-06 11:33 | 32.12407 | 73.84688 | 20805 ft | 456 kts | 141° |
| 2026-05-06 11:33 | 32.10695 | 73.86219 | 20802 ft | 456 kts | 141° |
| 2026-05-06 11:33 | 32.08190 | 73.88457 | 20802 ft | 457 kts | 142° |
| 2026-05-06 11:34 | 32.05643 | 73.90732 | 20578 ft | 454 kts | 142° |
| 2026-05-06 11:34 | 32.03125 | 73.92979 | 19374 ft | 456 kts | 142° |
| 2026-05-06 11:34 | 32.00578 | 73.95254 | 17916 ft | 458 kts | 142° |
| 2026-05-06 11:34 | 31.98058 | 73.97502 | 16554 ft | 453 kts | 142° |
| 2026-05-06 11:35 | 31.95559 | 73.99727 | 15336 ft | 445 kts | 142° |
| 2026-05-06 11:35 | 31.93095 | 74.01923 | 14666 ft | 440 kts | 142° |
| 2026-05-06 11:35 | 31.90718 | 74.04084 | 14127 ft | 434 kts | 141° |
| 2026-05-06 11:35 | 31.88364 | 74.06272 | 13523 ft | 430 kts | 140° |
| 2026-05-06 11:36 | 31.86035 | 74.08464 | 12876 ft | 425 kts | 141° |
| 2026-05-06 11:36 | 31.83734 | 74.10636 | 12240 ft | 421 kts | 141° |
| 2026-05-06 11:36 | 31.81455 | 74.12777 | 11591 ft | 417 kts | 141° |
| 2026-05-06 11:36 | 31.79195 | 74.14885 | 10935 ft | 413 kts | 142° |
| 2026-05-06 11:37 | 31.76955 | 74.16958 | 10654 ft | 400 kts | 142° |
| 2026-05-06 11:37 | 31.74817 | 74.18929 | 10533 ft | 383 kts | 142° |
| 2026-05-06 11:37 | 31.72761 | 74.20823 | 10413 ft | 367 kts | 142° |
| 2026-05-06 11:37 | 31.70819 | 74.22610 | 10283 ft | 353 kts | 142° |
| 2026-05-06 11:38 | 31.68911 | 74.24369 | 10178 ft | 341 kts | 142° |
| 2026-05-06 11:38 | 31.67077 | 74.26059 | 10058 ft | 329 kts | 142° |
| 2026-05-06 11:38 | 31.65304 | 74.27692 | 9933 ft | 318 kts | 142° |
| 2026-05-06 11:38 | 31.63574 | 74.29288 | 9626 ft | 314 kts | 142° |
| 2026-05-06 11:39 | 31.61836 | 74.30887 | 9141 ft | 317 kts | 142° |
| 2026-05-06 11:39 | 31.60150 | 74.32436 | 8868 ft | 311 kts | 142° |
| 2026-05-06 11:39 | 31.58437 | 74.33971 | 8522 ft | 308 kts | 148° |
| 2026-05-06 11:39 | 31.56501 | 74.34950 | 8160 ft | 301 kts | 168° |
| 2026-05-06 11:40 | 31.54466 | 74.35460 | 7531 ft | 297 kts | 170° |
| 2026-05-06 11:40 | 31.52454 | 74.35928 | 6935 ft | 294 kts | 170° |
| 2026-05-06 11:40 | 31.50465 | 74.36380 | 6334 ft | 290 kts | 170° |
| 2026-05-06 11:40 | 31.48496 | 74.36827 | 5864 ft | 282 kts | 170° |
| 2026-05-06 11:41 | 31.46590 | 74.37261 | 5748 ft | 282 kts | 170° |
| 2026-05-06 11:41 | 31.44676 | 74.37678 | 5684 ft | 274 kts | 174° |
| 2026-05-06 11:41 | 31.42818 | 74.37685 | 5560 ft | 260 kts | 186° |
| 2026-05-06 11:41 | 31.41042 | 74.37504 | 5360 ft | 251 kts | 187° |
| 2026-05-06 11:42 | 31.39323 | 74.37306 | 5132 ft | 246 kts | 187° |
| 2026-05-06 11:42 | 31.37624 | 74.37096 | 4800 ft | 244 kts | 187° |
| 2026-05-06 11:42 | 31.35953 | 74.36888 | 4455 ft | 244 kts | 187° |
| 2026-05-06 11:42 | 31.34270 | 74.36685 | 4052 ft | 242 kts | 187° |
| 2026-05-06 11:43 | 31.32598 | 74.36478 | 3546 ft | 242 kts | 187° |
| 2026-05-06 11:43 | 31.30924 | 74.36286 | 3072 ft | 240 kts | 182° |
| 2026-05-06 11:43 | 31.29272 | 74.36441 | 2950 ft | 239 kts | 160° |
| 2026-05-06 11:44 | 31.27205 | 74.39219 | 2956 ft | 237 kts | 93° |
| 2026-05-06 11:44 | 31.27577 | 74.41052 | 2956 ft | 232 kts | 52° |
| 2026-05-06 11:44 | 31.28814 | 74.42100 | 2956 ft | 217 kts | 11° |
| 2026-05-06 11:44 | 31.30252 | 74.41893 | 2952 ft | 209 kts | 332° |
| 2026-05-06 11:45 | 31.31490 | 74.41042 | 2953 ft | 204 kts | 330° |
| 2026-05-06 11:45 | 31.32790 | 74.40395 | 2951 ft | 202 kts | 347° |
| 2026-05-06 11:45 | 31.34186 | 74.40192 | 2958 ft | 203 kts | 358° |
| 2026-05-06 11:45 | 31.35599 | 74.40168 | 2960 ft | 203 kts | 359° |
| 2026-05-06 11:46 | 31.37009 | 74.40178 | 2953 ft | 202 kts | 0° |
| 2026-05-06 11:46 | 31.38414 | 74.40205 | 2913 ft | 202 kts | 0° |
| 2026-05-06 11:46 | 31.39787 | 74.40234 | 2730 ft | 189 kts | 360° |
| 2026-05-06 11:46 | 31.41057 | 74.40259 | 2506 ft | 176 kts | 360° |
| 2026-05-06 11:47 | 31.42246 | 74.40280 | 2283 ft | 165 kts | 360° |
| 2026-05-06 11:47 | 31.43342 | 74.40300 | 2093 ft | 157 kts | 360° |
| 2026-05-06 11:47 | 31.44420 | 74.40319 | 1895 ft | 155 kts | 0° |
| 2026-05-06 11:47 | 31.45493 | 74.40338 | 1697 ft | 153 kts | 0° |
| 2026-05-06 11:48 | 31.46560 | 74.40358 | 1516 ft | 154 kts | 0° |
| 2026-05-06 11:48 | 31.47632 | 74.40347 | 1215 ft | 154 kts | 358° |
| 2026-05-06 11:48 | 31.48693 | 74.40352 | 1113 ft | 153 kts | 5° |
| 2026-05-06 11:48 | 31.49770 | 74.40420 | 914 ft | 154 kts | 358° |
| 2026-05-06 11:49 | 31.50806 | 74.40422 | 751 ft | 142 kts | 360° |
| 2026-05-06 11:49 | 31.51667 | 74.40446 | 724 ft | 92 kts | 0° |
| 2026-05-06 11:49 | 31.52027 | 74.40455 | 723 ft | 9 kts | 4° |
| 2026-05-06 11:49 | 31.52048 | 74.40457 | 726 ft | 12 kts | 4° |
| 2026-05-06 11:50 | 31.52214 | 74.40458 | 723 ft | 28 kts | 0° |
| 2026-05-06 11:50 | 31.52415 | 74.40467 | 721 ft | 30 kts | 1° |
| 2026-05-06 11:50 | 31.52613 | 74.40468 | 721 ft | 26 kts | 1° |
| 2026-05-06 11:50 | 31.52782 | 74.40490 | 725 ft | 19 kts | 49° |
| 2026-05-06 11:51 | 31.52795 | 74.40643 | 723 ft | 19 kts | 116° |
| 2026-05-06 11:51 | 31.52677 | 74.40677 | 721 ft | 19 kts | 179° |
| 2026-05-06 11:51 | 31.52549 | 74.40672 | 725 ft | 14 kts | 181° |
| 2026-05-06 11:51 | 31.52454 | 74.40678 | 722 ft | 13 kts | 168° |
| 2026-05-06 11:52 | 31.52403 | 74.40745 | 723 ft | 11 kts | 106° |
| 2026-05-06 11:52 | 31.52393 | 74.40819 | 722 ft | 8 kts | 119° |
| 2026-05-06 11:52 | 31.52350 | 74.40843 | 724 ft | 6 kts | 172° |
| 2026-05-06 11:52 | 31.52280 | 74.40844 | 723 ft | 17 kts | 180° |
| 2026-05-06 11:53 | 31.52161 | 74.40846 | 722 ft | 19 kts | 179° |
| 2026-05-06 11:53 | 31.52049 | 74.40843 | 722 ft | 11 kts | 173° |
| 2026-05-06 11:53 | 31.52037 | 74.40866 | 722 ft | 2 kts | 90° |
| 2026-05-06 11:53 | 31.52038 | 74.40894 | 722 ft | 6 kts | 88° |
| 2026-05-06 11:54 | 31.52039 | 74.40929 | 722 ft | 1 kts | 90° |
| 2026-05-06 11:54 | 31.52039 | 74.40932 | 722 ft | 0 kts | 92° |
| 2026-05-06 11:54 | 31.52039 | 74.40935 | 722 ft | 0 kts | 92° |